Airfield :
LOGIN :

Register | Disclaimer

   EN    FR    IT 

 










Legend :    VFR   Marginal VFR   IFR   Intensive IFR   Very Intensive IFR
Visi :
Ceiling :
>= 8 km
>= 3000ft
5 to 8 km
1000 to 3000 ft
1500m to 5 km
500 to 1000 ft
800 to 1500m
200 to 500 ft
< 800m
< 200 ft
Symbols :   Thunderstorms  Fog  Heavy snow  Heavy precipitations  Wind > 20 kt
SIGMETs :     Misc.  Thunderstorms  Icing  Turbulence  Mountain Waves  Volcanic Ashes






- Airport Elevation : 39 ft
- IATA code : SUF


LICA - Lamezia Terme

CURRENT METAR :
  • 051720Z AUTO 24009KT 9999 FEW130/// 25/20 Q1011

EXPIRED METARs :
  • 051650Z AUTO 26010KT 9999 FEW071/// 26/19 Q1011
  • 051620Z AUTO 25009KT 9999 FEW074/// 26/20 Q1011
  • 051550Z AUTO 26011KT 9999 NCD 26/19 Q1011
  • 051520Z AUTO 26011KT 9999 NCD 27/20 Q1011
  • 051450Z AUTO 26013KT 9999 FEW029/// 28/20 Q1011

TAF TAF LICA
Valid from the 05 at 18:00 until the 06 at 18:00 UTC


051700Z 0518/0618 27010KT 9999 SCT020
TEMPO 0612/0618 TSRA



MET'MAP, your aeronautical weather chart ! - Copyright ORBIFLY December 2007 - Disclaimer

ORBIFLY MET'MAP TEAM :

Programming & Development : Alexandra Zaïnal
Concept & original design : Baudouin d'Aumeries
Assistance for programming : Marc-Olivier Méhu
Technical & hardware support : Manuel Goepfert

Contact : metmap@orbifly.com




SOURCES & CREDITS :

   NOAA